Time;durP1;ratioP1;P1;durP2;ratioP2;P2;SDS_P1;SDS_P2;PMS_P1;PMS_P2;Temp;Humidity;BMP_temperature;BMP_pressure;BME280_temperature;BME280_humidity;BME280_pressure;Samples;Min_cycle;Max_cycle;Signal;HPM_P1;HPM_P2
2023/07/05 00:04:40;;;;;;;15.8;11.5;;;;;;;16.4;80.14;;;;;
2023/07/05 00:15:40;;;;;;;15.8;11.5;;;;;;;16.32;80.17;;;;;
2023/07/05 00:26:40;;;;;;;11.8;7.8;;;;;;;16.24;79.99;;;;;
2023/07/05 00:36:40;;;;;;;11.8;7.8;;;;;;;16.32;83.76;;;;;
2023/07/05 00:46:40;;;;;;;11.8;7.8;;;;;;;16.52;83.5;;;;;
2023/07/05 00:56:40;;;;;;;15.1;9;;;;;;;16.63;83.14;;;;;
2023/07/05 01:07:40;;;;;;;15.1;9;;;;;;;16.53;82.3;;;;;
2023/07/05 01:17:40;;;;;;;15.1;9;;;;;;;16.38;82.61;;;;;
2023/07/05 01:28:40;;;;;;;11.8;7.9;;;;;;;16.27;82.36;;;;;
2023/07/05 01:39:40;;;;;;;11.8;7.9;;;;;;;16.08;82.68;;;;;
2023/07/05 01:49:40;;;;;;;11.8;7.9;;;;;;;15.93;82.42;;;;;
2023/07/05 02:00:40;;;;;;;11.9;7.6;;;;;;;15.65;83.38;;;;;
2023/07/05 02:11:40;;;;;;;11.9;7.6;;;;;;;15.56;83.56;;;;;
2023/07/05 02:21:40;;;;;;;11.9;7.6;;;;;;;15.44;84.23;;;;;
2023/07/05 02:32:40;;;;;;;16.3;8.2;;;;;;;15.28;83.77;;;;;
2023/07/05 02:42:40;;;;;;;16.3;8.2;;;;;;;15.25;84.34;;;;;
2023/07/05 02:53:40;;;;;;;16.3;8.2;;;;;;;15.16;84.4;;;;;
2023/07/05 03:03:40;;;;;;;9.2;6.6;;;;;;;15.17;84.58;;;;;
2023/07/05 03:13:40;;;;;;;9.2;6.6;;;;;;;15.25;84.91;;;;;
2023/07/05 03:23:40;;;;;;;9.2;6.6;;;;;;;15.41;84.82;;;;;
2023/07/05 03:33:40;;;;;;;12.1;8;;;;;;;15.45;85.72;;;;;
2023/07/05 03:44:40;;;;;;;12.1;8;;;;;;;15.57;87.12;;;;;
2023/07/05 03:54:40;;;;;;;12.1;8;;;;;;;16.04;86.18;;;;;
2023/07/05 04:04:42;;;;;;;11.7;7.9;;;;;;;16.47;85.73;;;;;
2023/07/05 04:14:40;;;;;;;11.7;7.9;;;;;;;16.92;84.77;;;;;
2023/07/05 04:25:40;;;;;;;13.2;8;;;;;;;17.38;83.31;;;;;
2023/07/05 04:35:40;;;;;;;13.2;8;;;;;;;17.76;82.24;;;;;
2023/07/05 04:46:40;;;;;;;13.2;8;;;;;;;18.33;80.92;;;;;
2023/07/05 04:56:40;;;;;;;15.3;7.4;;;;;;;18.73;79.58;;;;;
2023/07/05 05:06:40;;;;;;;15.3;7.4;;;;;;;19.33;78.41;;;;;
2023/07/05 05:16:40;;;;;;;15.3;7.4;;;;;;;19.8;76.72;;;;;
2023/07/05 05:27:40;;;;;;;12.5;7.6;;;;;;;20.36;75.47;;;;;
2023/07/05 05:37:40;;;;;;;12.5;7.6;;;;;;;20.86;73.77;;;;;
2023/07/05 05:48:40;;;;;;;12.5;7.6;;;;;;;21.41;73.86;;;;;
2023/07/05 05:59:40;;;;;;;11.9;7.4;;;;;;;21.88;72.76;;;;;
2023/07/05 06:09:40;;;;;;;11.9;7.4;;;;;;;22.43;72.05;;;;;
2023/07/05 06:19:40;;;;;;;11.9;7.4;;;;;;;22.86;68.03;;;;;
2023/07/05 06:29:40;;;;;;;13.8;6.8;;;;;;;23.31;66.79;;;;;
2023/07/05 06:40:40;;;;;;;13.8;6.8;;;;;;;23.56;64.37;;;;;
2023/07/05 06:50:40;;;;;;;13.8;6.8;;;;;;;23.92;63.21;;;;;
2023/07/05 07:01:40;;;;;;;10.4;6.5;;;;;;;24.25;60.9;;;;;
2023/07/05 07:11:40;;;;;;;10.4;6.5;;;;;;;24.57;57.87;;;;;
2023/07/05 07:21:40;;;;;;;10.4;6.5;;;;;;;24.84;58.32;;;;;
2023/07/05 07:31:40;;;;;;;9.8;5.3;;;;;;;25.06;56.42;;;;;
2023/07/05 07:42:40;;;;;;;9.8;5.3;;;;;;;25.48;55.24;;;;;
2023/07/05 07:53:40;;;;;;;9.8;5.3;;;;;;;25.89;56.3;;;;;
2023/07/05 08:04:40;;;;;;;9;5.3;;;;;;;26.12;52.67;;;;;
2023/07/05 08:14:40;;;;;;;9;5.3;;;;;;;26.49;50.16;;;;;
2023/07/05 08:24:40;;;;;;;9;5.3;;;;;;;26.8;46.85;;;;;
2023/07/05 08:35:40;;;;;;;8;4.1;;;;;;;27.24;47.63;;;;;
2023/07/05 08:45:40;;;;;;;8;4.1;;;;;;;27.35;47.11;;;;;
2023/07/05 08:56:40;;;;;;;7.2;3.7;;;;;;;27.66;46.24;;;;;
2023/07/05 09:07:40;;;;;;;7.2;3.7;;;;;;;28.1;45.43;;;;;
2023/07/05 09:17:40;;;;;;;7.2;3.7;;;;;;;28.06;42.61;;;;;
2023/07/05 09:28:40;;;;;;;8.6;4.4;;;;;;;28.21;43.83;;;;;
2023/07/05 09:38:41;;;;;;;8.6;4.4;;;;;;;28.35;42.26;;;;;
2023/07/05 09:49:40;;;;;;;8.6;4.4;;;;;;;28.66;43.62;;;;;
2023/07/05 10:00:40;;;;;;;7;3.4;;;;;;;28.7;45.24;;;;;
2023/07/05 10:11:40;;;;;;;7;3.4;;;;;;;28.53;44.92;;;;;
2023/07/05 10:22:40;;;;;;;7;3.4;;;;;;;29.1;43.82;;;;;
2023/07/05 10:33:41;;;;;;;6.7;4.6;;;;;;;29.45;40.89;;;;;
2023/07/05 10:43:40;;;;;;;6.7;4.6;;;;;;;29.38;43.18;;;;;
2023/07/05 10:54:41;;;;;;;6.7;4.6;;;;;;;29.48;41.43;;;;;
2023/07/05 11:04:42;;;;;;;7.9;4.3;;;;;;;30.22;42.95;;;;;
2023/07/05 11:15:40;;;;;;;7.9;4.3;;;;;;;30.66;37.38;;;;;
2023/07/05 11:25:40;;;;;;;5.7;3;;;;;;;31.18;37.48;;;;;
2023/07/05 11:36:40;;;;;;;5.7;3;;;;;;;31.18;40.63;;;;;
2023/07/05 11:47:40;;;;;;;5.7;3;;;;;;;31.53;37.61;;;;;
2023/07/05 11:58:40;;;;;;;6.9;3.6;;;;;;;31.11;36.42;;;;;
2023/07/05 12:09:40;;;;;;;6.9;3.6;;;;;;;31.23;35.41;;;;;
2023/07/05 12:19:40;;;;;;;6.9;3.6;;;;;;;31.03;36.91;;;;;
2023/07/05 12:29:40;;;;;;;9.1;3.5;;;;;;;30.63;37.62;;;;;
2023/07/05 12:40:40;;;;;;;9.1;3.5;;;;;;;31.24;39.99;;;;;
2023/07/05 12:50:41;;;;;;;9.1;3.5;;;;;;;31.25;42.28;;;;;
2023/07/05 13:00:40;;;;;;;6.5;3.3;;;;;;;31.41;38.28;;;;;
2023/07/05 13:10:40;;;;;;;6.5;3.3;;;;;;;31.31;39.36;;;;;
2023/07/05 13:21:40;;;;;;;6.5;3.3;;;;;;;30.88;39.96;;;;;
2023/07/05 13:31:40;;;;;;;7.2;3.7;;;;;;;31.05;39.62;;;;;
2023/07/05 13:41:40;;;;;;;7.2;3.7;;;;;;;30.93;37.54;;;;;
2023/07/05 13:51:40;;;;;;;7.2;3.7;;;;;;;31.57;37.85;;;;;
2023/07/05 14:01:40;;;;;;;8.5;4.4;;;;;;;31.88;38.27;;;;;
2023/07/05 14:11:40;;;;;;;8.5;4.4;;;;;;;32.19;36.81;;;;;
2023/07/05 14:22:40;;;;;;;8.5;4.4;;;;;;;32.14;37.88;;;;;
2023/07/05 14:32:40;;;;;;;6.3;3.2;;;;;;;32.94;34.79;;;;;
2023/07/05 14:42:40;;;;;;;6.3;3.2;;;;;;;32.21;37.33;;;;;
2023/07/05 14:52:40;;;;;;;6.3;3.2;;;;;;;32.38;36.08;;;;;
2023/07/05 15:03:40;;;;;;;6.5;3.5;;;;;;;31.29;36.43;;;;;
2023/07/05 15:13:42;;;;;;;6.5;3.5;;;;;;;30.28;39;;;;;
2023/07/05 15:23:40;;;;;;;6.5;3.5;;;;;;;29.3;41.12;;;;;
2023/07/05 15:33:40;;;;;;;8.4;3.6;;;;;;;28.93;42.28;;;;;
2023/07/05 15:43:40;;;;;;;8.4;3.6;;;;;;;28.72;45.09;;;;;
2023/07/05 15:54:40;;;;;;;8.4;3.6;;;;;;;28.48;43.98;;;;;
2023/07/05 16:05:40;;;;;;;7.8;4;;;;;;;25.85;53.33;;;;;
2023/07/05 16:15:40;;;;;;;7.8;4;;;;;;;22.96;72.58;;;;;
2023/07/05 16:26:40;;;;;;;10.7;5.7;;;;;;;21.82;73.9;;;;;
2023/07/05 16:36:40;;;;;;;10.7;5.7;;;;;;;20.75;75.44;;;;;
2023/07/05 16:47:40;;;;;;;10.7;5.7;;;;;;;20.1;79.56;;;;;
2023/07/05 16:58:40;;;;;;;7.3;3.2;;;;;;;19.99;78.88;;;;;
2023/07/05 17:09:41;;;;;;;7.3;3.2;;;;;;;19.8;82.25;;;;;
2023/07/05 17:20:40;;;;;;;7.3;3.2;;;;;;;19.73;84.45;;;;;
2023/07/05 17:30:40;;;;;;;6.9;4;;;;;;;19.97;82.92;;;;;
2023/07/05 17:40:40;;;;;;;6.9;4;;;;;;;19.97;83.62;;;;;
2023/07/05 17:51:41;;;;;;;6.9;4;;;;;;;19.95;85.04;;;;;
2023/07/05 18:02:40;;;;;;;6.3;3.6;;;;;;;20.06;84.59;;;;;
2023/07/05 18:12:40;;;;;;;6.3;3.6;;;;;;;19.74;85.85;;;;;
2023/07/05 18:22:40;;;;;;;6.3;3.6;;;;;;;19.62;85.14;;;;;
2023/07/05 18:32:40;;;;;;;8.4;4.6;;;;;;;19.65;84.74;;;;;
2023/07/05 18:43:40;;;;;;;8.4;4.6;;;;;;;19.52;84.83;;;;;
2023/07/05 18:54:40;;;;;;;8.4;4.6;;;;;;;19.38;85.54;;;;;
2023/07/05 19:05:40;;;;;;;13.3;5.7;;;;;;;19.34;85.42;;;;;
2023/07/05 19:16:41;;;;;;;13.3;5.7;;;;;;;19.44;84.92;;;;;
2023/07/05 19:26:41;;;;;;;8.8;5;;;;;;;19.23;87.15;;;;;
2023/07/05 19:36:40;;;;;;;8.8;5;;;;;;;19.31;85.9;;;;;
2023/07/05 19:46:40;;;;;;;8.8;5;;;;;;;19.14;85.95;;;;;
2023/07/05 19:57:41;;;;;;;10.8;5.3;;;;;;;18.89;85.89;;;;;
2023/07/05 20:07:40;;;;;;;10.8;5.3;;;;;;;18.55;87.75;;;;;
2023/07/05 20:17:41;;;;;;;10.8;5.3;;;;;;;18.49;88.18;;;;;
2023/07/05 20:28:40;;;;;;;11.8;5.1;;;;;;;18.47;88.45;;;;;
2023/07/05 20:39:40;;;;;;;11.8;5.1;;;;;;;18.65;87.61;;;;;
2023/07/05 20:50:40;;;;;;;11.8;5.1;;;;;;;18.6;87.3;;;;;
2023/07/05 21:00:41;;;;;;;10.9;4.9;;;;;;;18.38;88.6;;;;;
2023/07/05 21:11:40;;;;;;;10.9;4.9;;;;;;;18.52;88.07;;;;;
2023/07/05 21:22:40;;;;;;;10.9;4.9;;;;;;;18.44;87.84;;;;;
2023/07/05 21:33:40;;;;;;;7.2;4.6;;;;;;;18.57;87.01;;;;;
2023/07/05 21:44:40;;;;;;;7.2;4.6;;;;;;;18.58;86.87;;;;;
2023/07/05 21:54:40;;;;;;;7.2;4.6;;;;;;;18.56;86.59;;;;;
2023/07/05 22:04:42;;;;;;;8.4;5;;;;;;;18.49;86.62;;;;;
2023/07/05 22:15:44;;;;;;;8.4;5;;;;;;;18.42;86.21;;;;;
2023/07/05 22:25:41;;;;;;;8.4;5;;;;;;;18.51;85.55;;;;;
2023/07/05 22:35:40;;;;;;;9.8;5;;;;;;;18.39;85.88;;;;;
2023/07/05 22:46:40;;;;;;;9.8;5;;;;;;;18.44;83.9;;;;;
2023/07/05 22:56:42;;;;;;;7.1;3.9;;;;;;;18.46;83.15;;;;;
2023/07/05 23:07:41;;;;;;;7.1;3.9;;;;;;;18.4;84.73;;;;;
2023/07/05 23:18:40;;;;;;;7.1;3.9;;;;;;;18.19;85.66;;;;;
2023/07/05 23:28:40;;;;;;;7.3;4.6;;;;;;;18.09;87.2;;;;;
2023/07/05 23:38:40;;;;;;;7.3;4.6;;;;;;;17.99;86.99;;;;;
2023/07/05 23:49:40;;;;;;;7.3;4.6;;;;;;;17.84;87.33;;;;;
2023/07/05 23:59:40;;;;;;;8.8;5.1;;;;;;;17.78;86.87;;;;;
